Madison, NJ

1:36 AM EDT on October 21, 2014 (GMT -0400)
Madison Community Pool | Change Station
CLOSE
Current Station
Personal Weather Station
Location: Madison, NJ
Elevation: 207 ft
Nearby Weather Stations

Elev 207 ft 40.76 °N, 74.40 °W | Updated 1 minute ago

Clear
Clear
45.7 °F
Feels Like 46 °F
N
0.0
Wind Variable Wind from SSW

Today
High -- | Low -- °F
--% Chance of Precip.
Yesterday
High -- | Low -- °F
Precip. -- in
7:15 AM 6:08 PM
Waning Crescent, 7% visible
Pressure 29.95 in
Visibility 10.0 miles
Clouds Clear
Windchill 46 °F
Dew Point 45 °F
Humidity 98%
Rainfall 0.00 in
Snow Depth Not available.
UV 0 out of 12
Pollen 1.10 out of 12
Air Quality Not available.
Flu Activity Sporadic
METAR KMMU 210515Z AUTO 00000KT 10SM CLR 08/06 A2995 RMK AO2

More Conditions Fewer Conditions

Pressure 29.95 in
Visibility 10.0 miles
Clouds Clear
Windchill 46 °F
Dew Point 45 °F
Humidity 98%
Rainfall 0.00 in
Snow Depth Not available.
UV 0 out of 12
Pollen 1.10 out of 12
Air Quality Not available.
Flu Activity Sporadic
METAR KMMU 210515Z AUTO 00000KT 10SM CLR 08/06 A2995 RMK AO2

More Conditions Fewer Conditions

Nowcast | as of 12:13 am EDT on October 21, 2014

Scattered light showers will be moving northeastward across Maryland's Eastern Shore...as well as eastern Pennsylvania and northwest New Jersey early today. Its a mild early morning...especially compared to 24 hours ago when midnight temperatures were 12 to 19 degrees colder.

×

10-Day Weather Forecast

Almanac

Astronomy

Oct. 21, 2014 Rise Set
Actual Time 7:15 AM EDT 6:08 PM EDT
Civil Twilight 6:47 AM EDT 6:36 PM EDT
Nautical Twilight 6:15 AM EDT 7:08 PM EDT
Astronomical Twilight 5:43 AM EDT 7:39 PM EDT
Moon 4:56 AM EDT 5:01 PM EDT
Length of Visible Light 11h 48m
Length of Day
10h 53m
Tomorrow will be 2m 32s shorter.
Waning Crescent, 7% of the Moon is Illuminated
Today
Waning Crescent
Oct 23
New
Oct 30
First Quarter
Nov 6
Full
Nov 14
Last Quarter

Today's Extremes

State Highs State Lows

Community

WunderPhotos

Upload Photos

1,763,612 photos uploaded!

Nearby

Snow Depth

Station Depth Elevation
No new snow has been reported.

Earthquake Activity

City Distance Mag. Time & Date
No recent earthquake activity has been reported nearby.
Minimum magnitude displayed is 2.5.

Coastal Water Temperatures

Place Temperature
Sandy Hook, NJ 60.1 °F
The Battery, NY 63.0 °F
Kings Point, NY 60.1 °F

Nearby Weather Stations